sensor_id;sensor_type;location;lat;lon;timestamp;P1;durP1;ratioP1;P2;durP2;ratioP2
36233;SDS011;43467;50.890;5.982;2023-04-24T00:01:31;6.10;;;3.10;;
36233;SDS011;43467;50.890;5.982;2023-04-24T00:03:56;6.82;;;3.60;;
36233;SDS011;43467;50.890;5.982;2023-04-24T00:06:24;6.47;;;3.10;;
36233;SDS011;43467;50.890;5.982;2023-04-24T00:09:01;4.90;;;3.35;;
36233;SDS011;43467;50.890;5.982;2023-04-24T00:11:28;6.30;;;3.78;;
36233;SDS011;43467;50.890;5.982;2023-04-24T00:13:54;5.63;;;3.80;;
36233;SDS011;43467;50.890;5.982;2023-04-24T00:16:20;6.43;;;3.50;;
36233;SDS011;43467;50.890;5.982;2023-04-24T00:18:46;7.88;;;4.53;;
36233;SDS011;43467;50.890;5.982;2023-04-24T00:21:12;9.45;;;5.03;;
36233;SDS011;43467;50.890;5.982;2023-04-24T00:23:38;7.72;;;4.40;;
36233;SDS011;43467;50.890;5.982;2023-04-24T00:26:04;12.65;;;5.32;;
36233;SDS011;43467;50.890;5.982;2023-04-24T00:28:29;8.90;;;5.25;;
36233;SDS011;43467;50.890;5.982;2023-04-24T00:30:55;8.98;;;5.13;;
36233;SDS011;43467;50.890;5.982;2023-04-24T00:33:21;11.07;;;6.07;;
36233;SDS011;43467;50.890;5.982;2023-04-24T00:35:46;7.97;;;5.50;;
36233;SDS011;43467;50.890;5.982;2023-04-24T00:38:11;9.73;;;5.53;;
36233;SDS011;43467;50.890;5.982;2023-04-24T00:40:37;9.77;;;5.50;;
36233;SDS011;43467;50.890;5.982;2023-04-24T00:43:03;12.75;;;6.45;;
36233;SDS011;43467;50.890;5.982;2023-04-24T00:45:29;8.77;;;6.38;;
36233;SDS011;43467;50.890;5.982;2023-04-24T00:47:56;10.88;;;6.18;;
36233;SDS011;43467;50.890;5.982;2023-04-24T00:50:22;14.68;;;7.85;;
36233;SDS011;43467;50.890;5.982;2023-04-24T00:52:49;10.13;;;6.88;;
36233;SDS011;43467;50.890;5.982;2023-04-24T00:55:14;11.73;;;6.90;;
36233;SDS011;43467;50.890;5.982;2023-04-24T00:57:41;14.60;;;8.38;;
36233;SDS011;43467;50.890;5.982;2023-04-24T01:00:06;15.30;;;8.63;;
36233;SDS011;43467;50.890;5.982;2023-04-24T01:02:35;13.52;;;8.05;;
36233;SDS011;43467;50.890;5.982;2023-04-24T01:05:05;13.95;;;8.05;;
36233;SDS011;43467;50.890;5.982;2023-04-24T01:07:32;14.45;;;8.05;;
36233;SDS011;43467;50.890;5.982;2023-04-24T01:09:59;13.98;;;8.32;;
36233;SDS011;43467;50.890;5.982;2023-04-24T01:12:25;15.18;;;9.05;;
36233;SDS011;43467;50.890;5.982;2023-04-24T01:14:50;20.42;;;10.70;;
36233;SDS011;43467;50.890;5.982;2023-04-24T01:17:16;13.75;;;8.95;;
36233;SDS011;43467;50.890;5.982;2023-04-24T01:19:42;15.73;;;9.07;;
36233;SDS011;43467;50.890;5.982;2023-04-24T01:22:13;18.13;;;9.70;;
36233;SDS011;43467;50.890;5.982;2023-04-24T01:24:39;14.10;;;9.35;;
36233;SDS011;43467;50.890;5.982;2023-04-24T01:27:05;16.08;;;9.23;;
36233;SDS011;43467;50.890;5.982;2023-04-24T01:29:32;16.90;;;10.30;;
36233;SDS011;43467;50.890;5.982;2023-04-24T01:31:58;19.17;;;10.57;;
36233;SDS011;43467;50.890;5.982;2023-04-24T01:34:23;19.27;;;10.27;;
36233;SDS011;43467;50.890;5.982;2023-04-24T01:36:49;18.85;;;10.18;;
36233;SDS011;43467;50.890;5.982;2023-04-24T01:39:15;15.02;;;9.82;;
36233;SDS011;43467;50.890;5.982;2023-04-24T01:41:41;14.63;;;9.73;;
36233;SDS011;43467;50.890;5.982;2023-04-24T01:44:07;20.02;;;9.70;;
36233;SDS011;43467;50.890;5.982;2023-04-24T01:46:32;15.25;;;9.48;;
36233;SDS011;43467;50.890;5.982;2023-04-24T01:49:00;13.50;;;9.18;;
36233;SDS011;43467;50.890;5.982;2023-04-24T01:51:26;13.70;;;9.13;;
36233;SDS011;43467;50.890;5.982;2023-04-24T01:53:51;13.27;;;9.05;;
36233;SDS011;43467;50.890;5.982;2023-04-24T01:56:18;15.00;;;8.48;;
36233;SDS011;43467;50.890;5.982;2023-04-24T01:58:45;15.25;;;9.75;;
36233;SDS011;43467;50.890;5.982;2023-04-24T02:01:15;17.83;;;9.30;;
36233;SDS011;43467;50.890;5.982;2023-04-24T02:03:43;19.65;;;10.13;;
36233;SDS011;43467;50.890;5.982;2023-04-24T02:06:09;19.50;;;9.73;;
36233;SDS011;43467;50.890;5.982;2023-04-24T02:08:34;18.05;;;9.35;;
36233;SDS011;43467;50.890;5.982;2023-04-24T02:11:00;18.42;;;10.00;;
36233;SDS011;43467;50.890;5.982;2023-04-24T02:13:27;16.85;;;9.65;;
36233;SDS011;43467;50.890;5.982;2023-04-24T02:15:52;13.82;;;9.02;;
36233;SDS011;43467;50.890;5.982;2023-04-24T02:18:18;17.67;;;9.32;;
36233;SDS011;43467;50.890;5.982;2023-04-24T02:20:43;16.08;;;9.63;;
36233;SDS011;43467;50.890;5.982;2023-04-24T02:23:08;14.57;;;9.38;;
36233;SDS011;43467;50.890;5.982;2023-04-24T02:25:34;17.55;;;9.48;;
36233;SDS011;43467;50.890;5.982;2023-04-24T02:28:00;18.17;;;10.18;;
36233;SDS011;43467;50.890;5.982;2023-04-24T02:30:25;16.60;;;9.85;;
36233;SDS011;43467;50.890;5.982;2023-04-24T02:32:51;11.88;;;8.63;;
36233;SDS011;43467;50.890;5.982;2023-04-24T02:35:16;20.08;;;10.77;;
36233;SDS011;43467;50.890;5.982;2023-04-24T02:37:42;16.77;;;9.77;;
36233;SDS011;43467;50.890;5.982;2023-04-24T02:40:07;15.35;;;9.00;;
36233;SDS011;43467;50.890;5.982;2023-04-24T02:42:34;19.02;;;10.43;;
36233;SDS011;43467;50.890;5.982;2023-04-24T02:44:59;17.15;;;9.77;;
36233;SDS011;43467;50.890;5.982;2023-04-24T02:47:25;15.30;;;9.43;;
36233;SDS011;43467;50.890;5.982;2023-04-24T02:49:50;16.10;;;10.85;;
36233;SDS011;43467;50.890;5.982;2023-04-24T02:52:15;14.32;;;9.65;;
36233;SDS011;43467;50.890;5.982;2023-04-24T02:54:41;15.35;;;9.45;;
36233;SDS011;43467;50.890;5.982;2023-04-24T02:57:07;16.50;;;10.70;;
36233;SDS011;43467;50.890;5.982;2023-04-24T02:59:33;15.13;;;10.05;;
36233;SDS011;43467;50.890;5.982;2023-04-24T03:01:58;18.08;;;10.23;;
36233;SDS011;43467;50.890;5.982;2023-04-24T03:04:24;19.25;;;11.23;;
36233;SDS011;43467;50.890;5.982;2023-04-24T03:06:50;18.25;;;10.40;;
36233;SDS011;43467;50.890;5.982;2023-04-24T03:09:18;17.45;;;10.27;;
36233;SDS011;43467;50.890;5.982;2023-04-24T03:11:43;15.18;;;10.80;;
36233;SDS011;43467;50.890;5.982;2023-04-24T03:14:09;18.30;;;10.50;;
36233;SDS011;43467;50.890;5.982;2023-04-24T03:16:34;19.20;;;10.50;;
36233;SDS011;43467;50.890;5.982;2023-04-24T03:18:59;19.67;;;9.55;;
36233;SDS011;43467;50.890;5.982;2023-04-24T03:21:25;15.95;;;9.55;;
36233;SDS011;43467;50.890;5.982;2023-04-24T03:23:51;16.23;;;10.00;;
36233;SDS011;43467;50.890;5.982;2023-04-24T03:26:17;14.15;;;9.55;;
36233;SDS011;43467;50.890;5.982;2023-04-24T03:28:42;14.50;;;9.68;;
36233;SDS011;43467;50.890;5.982;2023-04-24T03:31:07;16.00;;;8.68;;
36233;SDS011;43467;50.890;5.982;2023-04-24T03:33:33;14.25;;;8.52;;
36233;SDS011;43467;50.890;5.982;2023-04-24T03:35:58;13.45;;;8.80;;
36233;SDS011;43467;50.890;5.982;2023-04-24T03:38:24;16.85;;;9.60;;
36233;SDS011;43467;50.890;5.982;2023-04-24T03:40:49;15.25;;;9.35;;
36233;SDS011;43467;50.890;5.982;2023-04-24T03:43:14;16.27;;;9.23;;
36233;SDS011;43467;50.890;5.982;2023-04-24T03:45:40;14.10;;;9.35;;
36233;SDS011;43467;50.890;5.982;2023-04-24T03:48:05;15.73;;;10.25;;
36233;SDS011;43467;50.890;5.982;2023-04-24T03:50:31;15.95;;;9.20;;
36233;SDS011;43467;50.890;5.982;2023-04-24T03:52:56;16.65;;;9.85;;
36233;SDS011;43467;50.890;5.982;2023-04-24T03:55:22;14.90;;;8.73;;
36233;SDS011;43467;50.890;5.982;2023-04-24T03:57:47;18.70;;;9.77;;
36233;SDS011;43467;50.890;5.982;2023-04-24T04:00:15;14.00;;;9.07;;
36233;SDS011;43467;50.890;5.982;2023-04-24T04:02:44;13.80;;;8.77;;
36233;SDS011;43467;50.890;5.982;2023-04-24T04:05:09;15.82;;;9.05;;
36233;SDS011;43467;50.890;5.982;2023-04-24T04:07:35;14.93;;;8.88;;
36233;SDS011;43467;50.890;5.982;2023-04-24T04:10:00;12.43;;;9.18;;
36233;SDS011;43467;50.890;5.982;2023-04-24T04:12:26;12.35;;;8.68;;
36233;SDS011;43467;50.890;5.982;2023-04-24T04:14:51;14.95;;;8.98;;
36233;SDS011;43467;50.890;5.982;2023-04-24T04:17:16;12.90;;;8.93;;
36233;SDS011;43467;50.890;5.982;2023-04-24T04:19:42;13.70;;;8.85;;
36233;SDS011;43467;50.890;5.982;2023-04-24T04:22:08;13.75;;;8.63;;
36233;SDS011;43467;50.890;5.982;2023-04-24T04:24:33;15.05;;;9.15;;
36233;SDS011;43467;50.890;5.982;2023-04-24T04:27:02;15.00;;;9.55;;
36233;SDS011;43467;50.890;5.982;2023-04-24T04:29:29;15.13;;;8.90;;
36233;SDS011;43467;50.890;5.982;2023-04-24T04:31:56;11.65;;;8.55;;
36233;SDS011;43467;50.890;5.982;2023-04-24T04:34:22;18.67;;;8.35;;
36233;SDS011;43467;50.890;5.982;2023-04-24T04:36:47;15.65;;;9.82;;
36233;SDS011;43467;50.890;5.982;2023-04-24T04:39:13;15.32;;;9.35;;
36233;SDS011;43467;50.890;5.982;2023-04-24T04:41:40;13.65;;;9.55;;
36233;SDS011;43467;50.890;5.982;2023-04-24T04:44:06;11.60;;;8.65;;
36233;SDS011;43467;50.890;5.982;2023-04-24T04:46:33;11.85;;;7.97;;
36233;SDS011;43467;50.890;5.982;2023-04-24T04:48:59;12.05;;;8.57;;
36233;SDS011;43467;50.890;5.982;2023-04-24T04:51:26;12.00;;;8.63;;
36233;SDS011;43467;50.890;5.982;2023-04-24T04:53:52;13.82;;;8.50;;
36233;SDS011;43467;50.890;5.982;2023-04-24T04:56:17;13.98;;;8.25;;
36233;SDS011;43467;50.890;5.982;2023-04-24T04:58:43;13.85;;;7.90;;
36233;SDS011;43467;50.890;5.982;2023-04-24T05:01:08;15.40;;;8.65;;
36233;SDS011;43467;50.890;5.982;2023-04-24T05:03:34;12.70;;;7.95;;
36233;SDS011;43467;50.890;5.982;2023-04-24T05:05:59;12.15;;;7.68;;
36233;SDS011;43467;50.890;5.982;2023-04-24T05:08:25;12.05;;;8.07;;
36233;SDS011;43467;50.890;5.982;2023-04-24T05:10:50;10.90;;;7.40;;
36233;SDS011;43467;50.890;5.982;2023-04-24T05:13:15;12.27;;;7.72;;
36233;SDS011;43467;50.890;5.982;2023-04-24T05:15:41;7.93;;;6.70;;
36233;SDS011;43467;50.890;5.982;2023-04-24T05:18:06;13.75;;;8.40;;
36233;SDS011;43467;50.890;5.982;2023-04-24T05:20:32;10.95;;;7.53;;
36233;SDS011;43467;50.890;5.982;2023-04-24T05:22:58;9.45;;;6.45;;
36233;SDS011;43467;50.890;5.982;2023-04-24T05:25:23;11.88;;;7.38;;
36233;SDS011;43467;50.890;5.982;2023-04-24T05:27:48;11.52;;;7.00;;
36233;SDS011;43467;50.890;5.982;2023-04-24T05:30:14;9.25;;;6.03;;
36233;SDS011;43467;50.890;5.982;2023-04-24T05:32:39;9.38;;;7.28;;
36233;SDS011;43467;50.890;5.982;2023-04-24T05:35:05;12.43;;;7.70;;
36233;SDS011;43467;50.890;5.982;2023-04-24T05:37:31;9.02;;;7.25;;
36233;SDS011;43467;50.890;5.982;2023-04-24T05:39:56;11.68;;;6.88;;
36233;SDS011;43467;50.890;5.982;2023-04-24T05:42:22;9.57;;;5.75;;
36233;SDS011;43467;50.890;5.982;2023-04-24T05:44:47;16.17;;;6.22;;
36233;SDS011;43467;50.890;5.982;2023-04-24T05:47:13;9.35;;;6.25;;
36233;SDS011;43467;50.890;5.982;2023-04-24T05:49:39;8.63;;;5.55;;
36233;SDS011;43467;50.890;5.982;2023-04-24T05:52:04;6.85;;;5.38;;
36233;SDS011;43467;50.890;5.982;2023-04-24T05:54:31;6.95;;;5.40;;
36233;SDS011;43467;50.890;5.982;2023-04-24T05:56:56;8.45;;;5.70;;
36233;SDS011;43467;50.890;5.982;2023-04-24T05:59:22;5.97;;;5.32;;
36233;SDS011;43467;50.890;5.982;2023-04-24T06:01:48;7.97;;;5.07;;
36233;SDS011;43467;50.890;5.982;2023-04-24T06:04:14;6.90;;;5.13;;
36233;SDS011;43467;50.890;5.982;2023-04-24T06:06:39;6.55;;;4.80;;
36233;SDS011;43467;50.890;5.982;2023-04-24T06:09:05;10.43;;;5.60;;
36233;SDS011;43467;50.890;5.982;2023-04-24T06:11:31;7.07;;;5.50;;
36233;SDS011;43467;50.890;5.982;2023-04-24T06:13:56;10.95;;;6.35;;
36233;SDS011;43467;50.890;5.982;2023-04-24T06:16:22;8.32;;;6.45;;
36233;SDS011;43467;50.890;5.982;2023-04-24T06:18:47;9.68;;;5.72;;
36233;SDS011;43467;50.890;5.982;2023-04-24T06:21:13;9.60;;;5.90;;
36233;SDS011;43467;50.890;5.982;2023-04-24T06:23:39;6.43;;;4.70;;
36233;SDS011;43467;50.890;5.982;2023-04-24T06:26:04;8.90;;;5.68;;
36233;SDS011;43467;50.890;5.982;2023-04-24T06:28:30;10.30;;;4.47;;
36233;SDS011;43467;50.890;5.982;2023-04-24T06:30:55;5.68;;;4.35;;
36233;SDS011;43467;50.890;5.982;2023-04-24T06:33:21;8.52;;;3.75;;
36233;SDS011;43467;50.890;5.982;2023-04-24T06:35:46;5.75;;;4.03;;
36233;SDS011;43467;50.890;5.982;2023-04-24T06:38:12;5.78;;;4.05;;
36233;SDS011;43467;50.890;5.982;2023-04-24T06:40:37;6.20;;;3.75;;
36233;SDS011;43467;50.890;5.982;2023-04-24T06:43:02;4.80;;;3.50;;
36233;SDS011;43467;50.890;5.982;2023-04-24T06:45:28;6.60;;;3.90;;
36233;SDS011;43467;50.890;5.982;2023-04-24T06:47:54;6.43;;;4.35;;
36233;SDS011;43467;50.890;5.982;2023-04-24T06:50:20;5.70;;;3.75;;
36233;SDS011;43467;50.890;5.982;2023-04-24T06:52:46;5.68;;;4.30;;
36233;SDS011;43467;50.890;5.982;2023-04-24T06:55:11;6.50;;;3.78;;
36233;SDS011;43467;50.890;5.982;2023-04-24T06:57:37;7.03;;;4.20;;
36233;SDS011;43467;50.890;5.982;2023-04-24T07:00:03;6.63;;;4.82;;
36233;SDS011;43467;50.890;5.982;2023-04-24T07:02:30;7.18;;;4.43;;
36233;SDS011;43467;50.890;5.982;2023-04-24T07:04:55;6.45;;;4.50;;
36233;SDS011;43467;50.890;5.982;2023-04-24T07:07:22;5.97;;;4.28;;
36233;SDS011;43467;50.890;5.982;2023-04-24T07:09:48;7.20;;;4.95;;
36233;SDS011;43467;50.890;5.982;2023-04-24T07:12:15;7.50;;;4.90;;
36233;SDS011;43467;50.890;5.982;2023-04-24T07:14:41;7.13;;;5.30;;
36233;SDS011;43467;50.890;5.982;2023-04-24T07:17:07;9.30;;;5.63;;
36233;SDS011;43467;50.890;5.982;2023-04-24T07:19:33;9.32;;;5.57;;
36233;SDS011;43467;50.890;5.982;2023-04-24T07:22:00;7.88;;;4.97;;
36233;SDS011;43467;50.890;5.982;2023-04-24T07:24:26;7.57;;;5.07;;
36233;SDS011;43467;50.890;5.982;2023-04-24T07:26:51;8.05;;;5.38;;
36233;SDS011;43467;50.890;5.982;2023-04-24T07:29:18;7.80;;;5.20;;
36233;SDS011;43467;50.890;5.982;2023-04-24T07:31:44;11.93;;;6.03;;
36233;SDS011;43467;50.890;5.982;2023-04-24T07:34:10;9.57;;;5.45;;
36233;SDS011;43467;50.890;5.982;2023-04-24T07:36:35;10.68;;;5.28;;
36233;SDS011;43467;50.890;5.982;2023-04-24T07:39:03;9.38;;;5.47;;
36233;SDS011;43467;50.890;5.982;2023-04-24T07:41:29;9.80;;;6.05;;
36233;SDS011;43467;50.890;5.982;2023-04-24T07:43:54;10.40;;;6.00;;
36233;SDS011;43467;50.890;5.982;2023-04-24T07:46:20;10.18;;;5.85;;
36233;SDS011;43467;50.890;5.982;2023-04-24T07:48:45;6.93;;;5.70;;
36233;SDS011;43467;50.890;5.982;2023-04-24T07:51:13;10.68;;;6.47;;
36233;SDS011;43467;50.890;5.982;2023-04-24T07:53:39;12.52;;;6.60;;
36233;SDS011;43467;50.890;5.982;2023-04-24T07:56:05;10.57;;;6.32;;
36233;SDS011;43467;50.890;5.982;2023-04-24T07:58:30;10.88;;;7.60;;
36233;SDS011;43467;50.890;5.982;2023-04-24T08:00:56;11.20;;;7.38;;
36233;SDS011;43467;50.890;5.982;2023-04-24T08:03:21;14.30;;;6.93;;
36233;SDS011;43467;50.890;5.982;2023-04-24T08:05:47;14.07;;;7.38;;
36233;SDS011;43467;50.890;5.982;2023-04-24T08:08:12;10.13;;;7.57;;
36233;SDS011;43467;50.890;5.982;2023-04-24T08:10:38;12.70;;;7.85;;
36233;SDS011;43467;50.890;5.982;2023-04-24T08:13:04;11.25;;;8.35;;
36233;SDS011;43467;50.890;5.982;2023-04-24T08:15:29;11.98;;;8.00;;
36233;SDS011;43467;50.890;5.982;2023-04-24T08:17:55;34.67;;;10.23;;
36233;SDS011;43467;50.890;5.982;2023-04-24T08:20:20;31.08;;;9.52;;
36233;SDS011;43467;50.890;5.982;2023-04-24T08:22:46;14.48;;;7.63;;
36233;SDS011;43467;50.890;5.982;2023-04-24T08:25:13;13.73;;;7.05;;
36233;SDS011;43467;50.890;5.982;2023-04-24T08:27:38;12.65;;;7.53;;
36233;SDS011;43467;50.890;5.982;2023-04-24T08:30:04;42.60;;;9.70;;
36233;SDS011;43467;50.890;5.982;2023-04-24T08:32:30;11.07;;;6.60;;
36233;SDS011;43467;50.890;5.982;2023-04-24T08:34:56;14.65;;;7.68;;
36233;SDS011;43467;50.890;5.982;2023-04-24T08:37:22;12.70;;;6.35;;
36233;SDS011;43467;50.890;5.982;2023-04-24T08:39:49;10.43;;;6.40;;
36233;SDS011;43467;50.890;5.982;2023-04-24T08:42:15;10.68;;;6.10;;
36233;SDS011;43467;50.890;5.982;2023-04-24T08:44:41;8.43;;;5.18;;
36233;SDS011;43467;50.890;5.982;2023-04-24T08:47:07;11.35;;;6.35;;
36233;SDS011;43467;50.890;5.982;2023-04-24T08:49:33;9.68;;;5.97;;
36233;SDS011;43467;50.890;5.982;2023-04-24T08:52:01;10.27;;;6.55;;
36233;SDS011;43467;50.890;5.982;2023-04-24T08:54:27;8.50;;;6.05;;
36233;SDS011;43467;50.890;5.982;2023-04-24T08:56:53;10.50;;;6.72;;
36233;SDS011;43467;50.890;5.982;2023-04-24T08:59:23;12.13;;;6.60;;
36233;SDS011;43467;50.890;5.982;2023-04-24T09:01:48;9.35;;;6.47;;
36233;SDS011;43467;50.890;5.982;2023-04-24T09:04:15;11.93;;;7.13;;
36233;SDS011;43467;50.890;5.982;2023-04-24T09:06:44;13.88;;;6.88;;
36233;SDS011;43467;50.890;5.982;2023-04-24T09:09:10;10.63;;;6.35;;
36233;SDS011;43467;50.890;5.982;2023-04-24T09:11:36;11.80;;;6.15;;
36233;SDS011;43467;50.890;5.982;2023-04-24T09:14:02;12.10;;;6.75;;
36233;SDS011;43467;50.890;5.982;2023-04-24T09:16:29;9.70;;;6.03;;
36233;SDS011;43467;50.890;5.982;2023-04-24T09:18:54;10.52;;;5.30;;
36233;SDS011;43467;50.890;5.982;2023-04-24T09:21:21;12.73;;;5.60;;
36233;SDS011;43467;50.890;5.982;2023-04-24T09:23:57;7.35;;;4.85;;
36233;SDS011;43467;50.890;5.982;2023-04-24T09:26:29;8.98;;;4.93;;
36233;SDS011;43467;50.890;5.982;2023-04-24T09:28:56;6.60;;;4.82;;
36233;SDS011;43467;50.890;5.982;2023-04-24T09:31:22;11.82;;;5.72;;
36233;SDS011;43467;50.890;5.982;2023-04-24T09:33:54;13.32;;;6.53;;
36233;SDS011;43467;50.890;5.982;2023-04-24T09:36:35;16.65;;;6.90;;
36233;SDS011;43467;50.890;5.982;2023-04-24T09:39:06;15.63;;;8.18;;
36233;SDS011;43467;50.890;5.982;2023-04-24T09:44:16;20.75;;;10.07;;
36233;SDS011;43467;50.890;5.982;2023-04-24T09:46:49;19.65;;;10.13;;
36233;SDS011;43467;50.890;5.982;2023-04-24T09:49:25;18.67;;;10.90;;
36233;SDS011;43467;50.890;5.982;2023-04-24T09:51:52;18.30;;;10.10;;
36233;SDS011;43467;50.890;5.982;2023-04-24T09:54:28;18.52;;;9.75;;
36233;SDS011;43467;50.890;5.982;2023-04-24T09:56:54;18.83;;;9.68;;
36233;SDS011;43467;50.890;5.982;2023-04-24T09:59:21;19.38;;;9.52;;
36233;SDS011;43467;50.890;5.982;2023-04-24T10:01:47;18.38;;;8.25;;
36233;SDS011;43467;50.890;5.982;2023-04-24T10:04:23;19.42;;;7.70;;
36233;SDS011;43467;50.890;5.982;2023-04-24T10:06:51;15.48;;;7.82;;
36233;SDS011;43467;50.890;5.982;2023-04-24T10:09:19;16.83;;;6.75;;
36233;SDS011;43467;50.890;5.982;2023-04-24T10:11:48;15.45;;;6.82;;
36233;SDS011;43467;50.890;5.982;2023-04-24T10:14:15;13.40;;;6.20;;
36233;SDS011;43467;50.890;5.982;2023-04-24T10:16:46;14.52;;;5.97;;
36233;SDS011;43467;50.890;5.982;2023-04-24T10:19:12;11.75;;;5.70;;
36233;SDS011;43467;50.890;5.982;2023-04-24T10:21:38;11.60;;;5.50;;
36233;SDS011;43467;50.890;5.982;2023-04-24T10:24:07;14.95;;;6.13;;
36233;SDS011;43467;50.890;5.982;2023-04-24T10:26:35;14.82;;;5.55;;
36233;SDS011;43467;50.890;5.982;2023-04-24T10:29:02;15.32;;;5.70;;
36233;SDS011;43467;50.890;5.982;2023-04-24T10:31:31;13.88;;;5.88;;
36233;SDS011;43467;50.890;5.982;2023-04-24T10:33:58;19.73;;;7.35;;
36233;SDS011;43467;50.890;5.982;2023-04-24T10:36:26;14.15;;;6.43;;
36233;SDS011;43467;50.890;5.982;2023-04-24T10:38:54;16.88;;;6.93;;
36233;SDS011;43467;50.890;5.982;2023-04-24T10:41:21;18.92;;;6.60;;
36233;SDS011;43467;50.890;5.982;2023-04-24T10:44:10;15.45;;;7.15;;
36233;SDS011;43467;50.890;5.982;2023-04-24T10:46:37;15.73;;;7.43;;
36233;SDS011;43467;50.890;5.982;2023-04-24T10:49:07;13.02;;;6.25;;
36233;SDS011;43467;50.890;5.982;2023-04-24T10:54:35;21.17;;;7.85;;
36233;SDS011;43467;50.890;5.982;2023-04-24T10:59:44;20.15;;;9.68;;
36233;SDS011;43467;50.890;5.982;2023-04-24T11:02:10;17.63;;;8.98;;
36233;SDS011;43467;50.890;5.982;2023-04-24T11:04:39;22.65;;;10.07;;
36233;SDS011;43467;50.890;5.982;2023-04-24T11:07:04;24.02;;;9.43;;
36233;SDS011;43467;50.890;5.982;2023-04-24T11:09:30;17.05;;;8.50;;
36233;SDS011;43467;50.890;5.982;2023-04-24T11:12:06;17.33;;;8.05;;
36233;SDS011;43467;50.890;5.982;2023-04-24T11:15:09;16.95;;;8.43;;
36233;SDS011;43467;50.890;5.982;2023-04-24T11:17:31;17.77;;;7.70;;
36233;SDS011;43467;50.890;5.982;2023-04-24T11:20:08;13.75;;;7.45;;
36233;SDS011;43467;50.890;5.982;2023-04-24T11:22:36;12.80;;;6.90;;
36233;SDS011;43467;50.890;5.982;2023-04-24T11:25:05;13.38;;;6.72;;
36233;SDS011;43467;50.890;5.982;2023-04-24T11:27:32;9.93;;;5.43;;
36233;SDS011;43467;50.890;5.982;2023-04-24T11:30:05;12.88;;;6.28;;
36233;SDS011;43467;50.890;5.982;2023-04-24T11:32:38;11.45;;;5.50;;
36233;SDS011;43467;50.890;5.982;2023-04-24T11:35:06;15.23;;;6.55;;
36233;SDS011;43467;50.890;5.982;2023-04-24T11:37:37;17.20;;;6.78;;
36233;SDS011;43467;50.890;5.982;2023-04-24T11:40:07;13.68;;;6.82;;
36233;SDS011;43467;50.890;5.982;2023-04-24T11:42:36;12.60;;;6.32;;
36233;SDS011;43467;50.890;5.982;2023-04-24T11:45:07;16.73;;;7.68;;
36233;SDS011;43467;50.890;5.982;2023-04-24T11:47:34;16.75;;;6.95;;
36233;SDS011;43467;50.890;5.982;2023-04-24T11:50:00;12.88;;;6.90;;
36233;SDS011;43467;50.890;5.982;2023-04-24T11:52:26;20.75;;;7.75;;
36233;SDS011;43467;50.890;5.982;2023-04-24T11:54:52;14.05;;;7.20;;
36233;SDS011;43467;50.890;5.982;2023-04-24T11:57:21;15.35;;;7.65;;
36233;SDS011;43467;50.890;5.982;2023-04-24T11:59:49;13.45;;;7.38;;
36233;SDS011;43467;50.890;5.982;2023-04-24T12:02:24;15.32;;;6.55;;
36233;SDS011;43467;50.890;5.982;2023-04-24T12:04:51;17.00;;;7.78;;
36233;SDS011;43467;50.890;5.982;2023-04-24T12:07:17;17.20;;;7.90;;
36233;SDS011;43467;50.890;5.982;2023-04-24T12:09:47;13.30;;;7.20;;
36233;SDS011;43467;50.890;5.982;2023-04-24T12:12:15;19.80;;;8.15;;
36233;SDS011;43467;50.890;5.982;2023-04-24T12:14:47;14.65;;;8.10;;
36233;SDS011;43467;50.890;5.982;2023-04-24T12:17:14;18.00;;;8.05;;
36233;SDS011;43467;50.890;5.982;2023-04-24T12:19:49;16.98;;;7.68;;
36233;SDS011;43467;50.890;5.982;2023-04-24T12:22:16;17.10;;;7.60;;
36233;SDS011;43467;50.890;5.982;2023-04-24T12:24:57;15.52;;;8.13;;
36233;SDS011;43467;50.890;5.982;2023-04-24T12:27:25;16.20;;;8.45;;
36233;SDS011;43467;50.890;5.982;2023-04-24T12:29:52;15.55;;;7.82;;
36233;SDS011;43467;50.890;5.982;2023-04-24T12:32:21;15.70;;;7.28;;
36233;SDS011;43467;50.890;5.982;2023-04-24T12:34:46;19.33;;;7.40;;
36233;SDS011;43467;50.890;5.982;2023-04-24T12:37:12;15.57;;;7.93;;
36233;SDS011;43467;50.890;5.982;2023-04-24T12:39:37;18.02;;;7.95;;
36233;SDS011;43467;50.890;5.982;2023-04-24T12:42:03;13.68;;;7.35;;
36233;SDS011;43467;50.890;5.982;2023-04-24T12:44:29;14.80;;;7.72;;
36233;SDS011;43467;50.890;5.982;2023-04-24T12:46:55;10.90;;;6.00;;
36233;SDS011;43467;50.890;5.982;2023-04-24T12:49:21;12.13;;;6.00;;
36233;SDS011;43467;50.890;5.982;2023-04-24T12:51:46;15.32;;;6.32;;
36233;SDS011;43467;50.890;5.982;2023-04-24T12:54:11;12.63;;;7.00;;
36233;SDS011;43467;50.890;5.982;2023-04-24T12:56:37;11.77;;;7.15;;
36233;SDS011;43467;50.890;5.982;2023-04-24T12:59:04;14.35;;;7.38;;
36233;SDS011;43467;50.890;5.982;2023-04-24T13:01:30;13.75;;;6.47;;
36233;SDS011;43467;50.890;5.982;2023-04-24T13:03:55;10.50;;;6.10;;
36233;SDS011;43467;50.890;5.982;2023-04-24T13:06:21;12.15;;;6.70;;
36233;SDS011;43467;50.890;5.982;2023-04-24T13:08:46;11.57;;;6.28;;
36233;SDS011;43467;50.890;5.982;2023-04-24T13:11:12;14.55;;;6.90;;
36233;SDS011;43467;50.890;5.982;2023-04-24T13:13:38;12.45;;;6.30;;
36233;SDS011;43467;50.890;5.982;2023-04-24T13:16:03;11.15;;;5.70;;
36233;SDS011;43467;50.890;5.982;2023-04-24T13:18:29;8.95;;;4.60;;
36233;SDS011;43467;50.890;5.982;2023-04-24T13:20:55;9.95;;;4.28;;
36233;SDS011;43467;50.890;5.982;2023-04-24T13:23:20;9.02;;;4.05;;
36233;SDS011;43467;50.890;5.982;2023-04-24T13:25:46;5.93;;;3.80;;
36233;SDS011;43467;50.890;5.982;2023-04-24T13:28:12;9.05;;;4.70;;
36233;SDS011;43467;50.890;5.982;2023-04-24T13:30:37;7.82;;;4.53;;
36233;SDS011;43467;50.890;5.982;2023-04-24T13:33:03;8.13;;;4.10;;
36233;SDS011;43467;50.890;5.982;2023-04-24T13:35:28;12.57;;;5.28;;
36233;SDS011;43467;50.890;5.982;2023-04-24T13:37:54;7.82;;;4.72;;
36233;SDS011;43467;50.890;5.982;2023-04-24T13:40:19;8.88;;;4.75;;
36233;SDS011;43467;50.890;5.982;2023-04-24T13:42:45;10.50;;;5.07;;
36233;SDS011;43467;50.890;5.982;2023-04-24T13:45:10;9.63;;;4.38;;
36233;SDS011;43467;50.890;5.982;2023-04-24T13:47:36;9.07;;;4.88;;
36233;SDS011;43467;50.890;5.982;2023-04-24T13:50:02;10.60;;;4.93;;
36233;SDS011;43467;50.890;5.982;2023-04-24T13:52:28;11.13;;;5.18;;
36233;SDS011;43467;50.890;5.982;2023-04-24T13:54:53;11.40;;;4.97;;
36233;SDS011;43467;50.890;5.982;2023-04-24T13:57:18;7.00;;;4.68;;
36233;SDS011;43467;50.890;5.982;2023-04-24T13:59:44;11.13;;;4.97;;
36233;SDS011;43467;50.890;5.982;2023-04-24T14:02:10;10.27;;;5.45;;
36233;SDS011;43467;50.890;5.982;2023-04-24T14:04:35;10.05;;;4.60;;
36233;SDS011;43467;50.890;5.982;2023-04-24T14:07:01;8.70;;;5.60;;
36233;SDS011;43467;50.890;5.982;2023-04-24T14:09:26;10.02;;;5.00;;
36233;SDS011;43467;50.890;5.982;2023-04-24T14:11:52;13.35;;;5.22;;
36233;SDS011;43467;50.890;5.982;2023-04-24T14:14:17;8.80;;;5.05;;
36233;SDS011;43467;50.890;5.982;2023-04-24T14:16:43;8.68;;;4.57;;
36233;SDS011;43467;50.890;5.982;2023-04-24T14:19:08;10.30;;;4.63;;
36233;SDS011;43467;50.890;5.982;2023-04-24T14:21:33;11.50;;;5.97;;
36233;SDS011;43467;50.890;5.982;2023-04-24T14:23:59;8.43;;;4.85;;
36233;SDS011;43467;50.890;5.982;2023-04-24T14:26:25;8.07;;;4.32;;
36233;SDS011;43467;50.890;5.982;2023-04-24T14:28:50;10.65;;;4.70;;
36233;SDS011;43467;50.890;5.982;2023-04-24T14:31:17;7.68;;;4.47;;
36233;SDS011;43467;50.890;5.982;2023-04-24T14:33:43;9.05;;;4.50;;
36233;SDS011;43467;50.890;5.982;2023-04-24T14:36:08;12.00;;;5.35;;
36233;SDS011;43467;50.890;5.982;2023-04-24T14:38:34;9.85;;;4.78;;
36233;SDS011;43467;50.890;5.982;2023-04-24T14:41:00;8.63;;;4.50;;
36233;SDS011;43467;50.890;5.982;2023-04-24T14:43:26;7.65;;;4.35;;